Time;durP1;ratioP1;P1;durP2;ratioP2;P2;SDS_P1;SDS_P2;PMS_P1;PMS_P2;Temp;Humidity;BMP_temperature;BMP_pressure;BME280_temperature;BME280_humidity;BME280_pressure;Samples;Min_cycle;Max_cycle;Signal;HPM_P1;HPM_P2
2022/11/08 00:01:49;;;;;;;7.75;1.60;;;;;;;;;;5013433;28;20049;-80
2022/11/08 00:04:16;;;;;;;4.07;1.60;;;;;;;;;;5021328;28;20076;-80
2022/11/08 00:14:58;;;;;;;10.90;1.63;;;;;;;;;;4999387;28;20054;-82
2022/11/08 00:17:26;;;;;;;9.50;2.08;;;;;;;;;;4992396;28;20050;-83
2022/11/08 00:19:52;;;;;;;6.57;1.20;;;;;;;;;;4994547;28;20056;-81
2022/11/08 00:22:19;;;;;;;7.45;1.98;;;;;;;;;;4989957;28;20050;-82
2022/11/08 00:24:45;;;;;;;9.05;1.65;;;;;;;;;;4993559;28;20475;-82
2022/11/08 00:27:13;;;;;;;7.18;1.35;;;;;;;;;;4993461;28;20491;-82
2022/11/08 00:29:39;;;;;;;13.27;1.58;;;;;;;;;;4993173;28;20061;-81
2022/11/08 00:32:07;;;;;;;10.27;1.50;;;;;;;;;;4994126;28;20046;-80
2022/11/08 00:34:33;;;;;;;6.57;1.38;;;;;;;;;;4993695;28;20058;-81
2022/11/08 00:37:00;;;;;;;11.85;1.73;;;;;;;;;;5007564;28;20065;-79
2022/11/08 00:39:27;;;;;;;10.98;1.75;;;;;;;;;;5007230;28;20046;-80
2022/11/08 00:41:53;;;;;;;4.50;1.33;;;;;;;;;;5001480;28;20046;-79
2022/11/08 00:44:19;;;;;;;7.88;1.52;;;;;;;;;;5006988;28;20046;-80
2022/11/08 00:46:46;;;;;;;7.22;1.30;;;;;;;;;;5004710;28;20061;-81
2022/11/08 00:49:12;;;;;;;5.57;1.55;;;;;;;;;;4997515;28;20064;-79
2022/11/08 00:51:38;;;;;;;7.30;1.60;;;;;;;;;;5000882;28;20050;-79
2022/11/08 00:54:05;;;;;;;3.47;1.20;;;;;;;;;;4997508;28;20052;-79
2022/11/08 00:56:32;;;;;;;8.35;1.50;;;;;;;;;;4998035;28;20437;-79
2022/11/08 00:58:59;;;;;;;4.60;1.30;;;;;;;;;;4988854;28;20050;-81
2022/11/08 01:01:25;;;;;;;5.22;1.33;;;;;;;;;;4998749;28;20046;-80
2022/11/08 01:03:52;;;;;;;5.38;1.17;;;;;;;;;;5009089;28;20057;-80
2022/11/08 01:06:20;;;;;;;5.97;1.35;;;;;;;;;;5003421;28;20046;-80
2022/11/08 01:08:48;;;;;;;6.93;1.65;;;;;;;;;;5005556;28;20041;-80
2022/11/08 01:11:19;;;;;;;10.68;1.70;;;;;;;;;;5014007;28;20109;-81
2022/11/08 01:13:46;;;;;;;9.48;1.30;;;;;;;;;;5012982;28;20082;-79
2022/11/08 01:16:14;;;;;;;8.65;1.52;;;;;;;;;;4994177;28;20054;-78
2022/11/08 01:18:41;;;;;;;11.38;1.70;;;;;;;;;;4993619;28;20464;-78
2022/11/08 01:21:09;;;;;;;8.23;1.50;;;;;;;;;;4988362;28;20506;-80
2022/11/08 01:23:35;;;;;;;5.53;1.42;;;;;;;;;;4993589;28;20054;-81
2022/11/08 01:26:06;;;;;;;3.80;1.25;;;;;;;;;;4986442;28;20397;-82
2022/11/08 01:28:33;;;;;;;6.13;1.33;;;;;;;;;;4990921;28;20057;-79
2022/11/08 01:31:11;;;;;;;7.40;1.60;;;;;;;;;;4988473;28;20057;-79
2022/11/08 01:33:37;;;;;;;5.53;1.30;;;;;;;;;;5004863;28;20042;-81
2022/11/08 01:36:05;;;;;;;10.20;1.65;;;;;;;;;;4987420;28;20178;-83
2022/11/08 01:38:31;;;;;;;7.32;1.30;;;;;;;;;;4993888;28;20133;-80
2022/11/08 01:40:58;;;;;;;7.15;1.50;;;;;;;;;;4992884;28;20400;-81
2022/11/08 01:43:24;;;;;;;6.50;1.40;;;;;;;;;;4993052;28;20050;-82
2022/11/08 01:45:59;;;;;;;10.02;1.58;;;;;;;;;;4992688;28;20125;-81
2022/11/08 01:48:26;;;;;;;;;;;;;;;;;;4989555;28;20068;-82
2022/11/08 01:50:53;;;;;;;8.20;1.10;;;;;;;;;;4992324;28;19929;-81
2022/11/08 01:53:20;;;;;;;4.93;1.20;;;;;;;;;;4991718;28;20054;-82
2022/11/08 01:55:46;;;;;;;7.70;1.20;;;;;;;;;;4992984;28;20056;-83
2022/11/08 01:58:16;;;;;;;6.68;1.38;;;;;;;;;;4987094;28;20038;-79
2022/11/08 02:00:43;;;;;;;6.35;1.33;;;;;;;;;;4993378;28;20104;-81
2022/11/08 02:03:11;;;;;;;5.65;1.25;;;;;;;;;;4997332;28;20489;-81
2022/11/08 02:05:38;;;;;;;5.70;1.08;;;;;;;;;;5005693;28;20578;-83
2022/11/08 02:08:04;;;;;;;6.35;1.77;;;;;;;;;;5015377;28;20060;-78
2022/11/08 02:10:33;;;;;;;9.35;1.42;;;;;;;;;;5022906;28;20143;-81
2022/11/08 02:13:00;;;;;;;6.38;1.20;;;;;;;;;;5010594;28;20054;-81
2022/11/08 02:15:31;;;;;;;4.88;1.35;;;;;;;;;;4999945;28;20061;-81
2022/11/08 02:17:57;;;;;;;8.95;1.73;;;;;;;;;;4994143;28;20047;-82
2022/11/08 02:20:23;;;;;;;7.15;1.40;;;;;;;;;;4992363;28;20053;-78
2022/11/08 02:23:10;;;;;;;4.43;1.10;;;;;;;;;;4992280;28;20038;-82
2022/11/08 02:25:36;;;;;;;10.25;1.60;;;;;;;;;;4962265;28;20058;-78
2022/11/08 02:28:03;;;;;;;4.90;1.10;;;;;;;;;;4987155;28;20051;-83
2022/11/08 02:30:33;;;;;;;7.07;1.40;;;;;;;;;;4993209;28;20539;-83
2022/11/08 02:32:59;;;;;;;5.60;1.35;;;;;;;;;;4992837;28;20423;-81
2022/11/08 02:35:26;;;;;;;6.88;0.88;;;;;;;;;;4989883;28;20054;-82
2022/11/08 02:37:52;;;;;;;4.57;1.30;;;;;;;;;;4992311;28;20058;-82
2022/11/08 02:40:19;;;;;;;8.88;1.30;;;;;;;;;;4991706;28;20061;-81
2022/11/08 02:42:45;;;;;;;3.50;1.13;;;;;;;;;;4992653;28;20051;-81
2022/11/08 02:45:11;;;;;;;7.25;1.45;;;;;;;;;;4993321;28;20165;-81
2022/11/08 02:47:38;;;;;;;6.55;1.35;;;;;;;;;;4992613;28;20072;-82
2022/11/08 02:50:04;;;;;;;6.28;1.20;;;;;;;;;;4992585;28;20056;-81
2022/11/08 02:52:31;;;;;;;7.78;1.40;;;;;;;;;;4992671;28;20054;-79
2022/11/08 02:54:57;;;;;;;10.82;1.10;;;;;;;;;;4992908;28;20060;-81
2022/11/08 02:57:23;;;;;;;6.28;1.63;;;;;;;;;;5001837;28;20133;-78
2022/11/08 02:59:50;;;;;;;7.40;1.40;;;;;;;;;;4987680;28;20452;-80
2022/11/08 03:02:16;;;;;;;6.10;1.83;;;;;;;;;;4992102;28;20059;-81
2022/11/08 03:04:43;;;;;;;7.82;1.55;;;;;;;;;;5002022;28;20407;-80
2022/11/08 03:07:09;;;;;;;8.30;1.77;;;;;;;;;;5004185;28;20061;-81
2022/11/08 03:09:35;;;;;;;6.55;1.23;;;;;;;;;;5011552;28;20527;-78
2022/11/08 03:12:02;;;;;;;3.97;1.63;;;;;;;;;;5006058;28;20067;-78
2022/11/08 03:14:28;;;;;;;5.13;1.50;;;;;;;;;;5003621;28;20062;-81
2022/11/08 03:16:54;;;;;;;9.07;1.50;;;;;;;;;;4981060;28;20058;-80
2022/11/08 03:19:21;;;;;;;5.97;1.60;;;;;;;;;;4974611;28;20058;-81
2022/11/08 03:21:47;;;;;;;6.80;1.33;;;;;;;;;;4973780;28;20141;-80
2022/11/08 03:24:14;;;;;;;5.07;1.17;;;;;;;;;;4984953;28;20605;-80
2022/11/08 03:26:40;;;;;;;6.63;1.30;;;;;;;;;;4973312;28;20055;-77
2022/11/08 03:29:06;;;;;;;8.20;1.38;;;;;;;;;;4981657;28;20046;-79
2022/11/08 03:31:33;;;;;;;4.35;1.30;;;;;;;;;;4999732;28;20150;-81
2022/11/08 03:33:59;;;;;;;9.23;1.23;;;;;;;;;;4997214;28;20096;-78
2022/11/08 03:36:25;;;;;;;5.85;1.48;;;;;;;;;;4997574;28;20467;-80
2022/11/08 03:38:52;;;;;;;7.10;1.20;;;;;;;;;;4997345;28;20427;-80
2022/11/08 03:41:18;;;;;;;4.15;1.40;;;;;;;;;;4977946;28;20495;-78
2022/11/08 03:43:45;;;;;;;5.10;1.33;;;;;;;;;;4995607;28;20042;-80
2022/11/08 03:46:11;;;;;;;6.25;1.25;;;;;;;;;;4995093;28;20244;-80
2022/11/08 03:48:37;;;;;;;6.57;1.77;;;;;;;;;;4994840;28;20057;-80
2022/11/08 03:51:04;;;;;;;5.38;1.42;;;;;;;;;;4995742;28;20054;-80
2022/11/08 03:53:31;;;;;;;9.05;1.60;;;;;;;;;;4995191;28;20077;-79
2022/11/08 03:55:59;;;;;;;9.30;2.03;;;;;;;;;;4994904;28;20050;-81
2022/11/08 03:58:25;;;;;;;7.65;1.70;;;;;;;;;;4995257;28;20046;-80
2022/11/08 04:00:52;;;;;;;8.38;2.17;;;;;;;;;;4978959;28;20058;-78
2022/11/08 04:03:18;;;;;;;7.35;1.58;;;;;;;;;;5014969;28;20052;-78
2022/11/08 04:05:45;;;;;;;7.45;1.60;;;;;;;;;;5006870;28;20049;-81
2022/11/08 04:08:11;;;;;;;7.72;1.55;;;;;;;;;;5014661;28;20049;-81
2022/11/08 04:10:37;;;;;;;5.70;1.50;;;;;;;;;;5013221;28;20050;-79
2022/11/08 04:15:53;;;;;;;8.15;1.33;;;;;;;;;;4997487;28;20056;-81
2022/11/08 04:21:21;;;;;;;8.38;1.63;;;;;;;;;;4995027;28;20052;-80
2022/11/08 04:23:48;;;;;;;5.32;1.40;;;;;;;;;;4986456;28;20146;-81
2022/11/08 04:26:15;;;;;;;10.52;1.73;;;;;;;;;;4993499;28;20049;-82
2022/11/08 04:28:41;;;;;;;8.38;2.03;;;;;;;;;;4994531;28;20140;-80
2022/11/08 04:31:16;;;;;;;7.53;1.73;;;;;;;;;;4993307;28;20046;-78
2022/11/08 04:33:43;;;;;;;3.40;1.02;;;;;;;;;;5005968;28;20050;-77
2022/11/08 04:36:10;;;;;;;3.97;1.38;;;;;;;;;;5006968;28;20068;-79
2022/11/08 04:38:37;;;;;;;9.85;1.75;;;;;;;;;;5006843;28;20129;-79
2022/11/08 04:41:04;;;;;;;5.53;1.65;;;;;;;;;;5006964;28;20069;-77
2022/11/08 04:43:32;;;;;;;9.35;1.90;;;;;;;;;;5002616;28;20046;-79
2022/11/08 04:46:03;;;;;;;8.63;1.75;;;;;;;;;;4997969;28;20050;-77
2022/11/08 04:48:29;;;;;;;9.63;1.70;;;;;;;;;;4998546;28;20134;-82
2022/11/08 04:51:00;;;;;;;8.10;1.70;;;;;;;;;;4988938;28;20046;-83
2022/11/08 04:53:26;;;;;;;9.85;1.60;;;;;;;;;;4994306;28;20087;-81
2022/11/08 04:55:57;;;;;;;5.38;1.55;;;;;;;;;;4987263;28;20054;-80
2022/11/08 04:58:24;;;;;;;6.65;1.40;;;;;;;;;;4995365;28;20050;-82
2022/11/08 05:00:50;;;;;;;7.30;1.45;;;;;;;;;;4987246;28;20056;-81
2022/11/08 05:03:16;;;;;;;5.93;1.50;;;;;;;;;;4998592;28;20050;-81
2022/11/08 05:05:43;;;;;;;7.28;1.40;;;;;;;;;;4996245;28;20530;-79
2022/11/08 05:08:09;;;;;;;5.70;1.30;;;;;;;;;;4994816;28;20050;-79
2022/11/08 05:10:35;;;;;;;4.30;1.10;;;;;;;;;;4994136;28;20050;-81
2022/11/08 05:13:02;;;;;;;7.90;1.73;;;;;;;;;;4987740;28;20056;-81
2022/11/08 05:15:28;;;;;;;10.32;1.55;;;;;;;;;;4994203;28;20058;-82
2022/11/08 05:17:54;;;;;;;9.07;2.05;;;;;;;;;;4998837;28;20052;-81
2022/11/08 05:23:22;;;;;;;6.50;1.88;;;;;;;;;;5000260;28;20467;-78
2022/11/08 05:25:49;;;;;;;6.53;1.80;;;;;;;;;;4996563;28;20042;-82
2022/11/08 05:28:16;;;;;;;5.32;1.52;;;;;;;;;;5004525;28;20494;-78
2022/11/08 05:30:43;;;;;;;6.13;1.63;;;;;;;;;;5001687;28;20712;-82
2022/11/08 05:33:12;;;;;;;5.40;1.48;;;;;;;;;;5000717;28;20060;-81
2022/11/08 05:35:38;;;;;;;5.43;1.52;;;;;;;;;;4981076;28;20058;-81
2022/11/08 05:38:05;;;;;;;5.18;1.40;;;;;;;;;;4998415;28;20068;-81
2022/11/08 05:40:31;;;;;;;3.83;1.40;;;;;;;;;;4998496;28;20054;-84
2022/11/08 05:42:58;;;;;;;5.88;1.83;;;;;;;;;;4997866;28;20050;-80
2022/11/08 05:45:25;;;;;;;11.43;1.75;;;;;;;;;;4998988;28;20137;-83
2022/11/08 05:47:51;;;;;;;6.30;1.45;;;;;;;;;;4993079;28;20185;-81
2022/11/08 05:50:18;;;;;;;4.38;1.48;;;;;;;;;;5000928;28;20122;-83
2022/11/08 05:52:45;;;;;;;5.43;2.35;;;;;;;;;;5001464;28;20054;-78
2022/11/08 05:55:11;;;;;;;7.28;1.33;;;;;;;;;;4997269;28;20046;-82
2022/11/08 05:57:40;;;;;;;7.20;1.30;;;;;;;;;;5002979;28;20098;-82
2022/11/08 06:00:07;;;;;;;4.72;1.63;;;;;;;;;;5007197;28;20050;-81
2022/11/08 06:02:34;;;;;;;7.20;1.77;;;;;;;;;;4997112;28;20463;-79
2022/11/08 06:05:01;;;;;;;5.35;1.50;;;;;;;;;;5010131;28;20046;-84
2022/11/08 06:07:27;;;;;;;3.67;1.50;;;;;;;;;;5015315;28;20046;-79
2022/11/08 06:09:54;;;;;;;5.70;1.45;;;;;;;;;;4999566;28;20046;-80
2022/11/08 06:12:20;;;;;;;6.22;1.80;;;;;;;;;;5001030;28;20053;-82
2022/11/08 06:14:47;;;;;;;7.25;2.08;;;;;;;;;;4997793;28;20050;-81
2022/11/08 06:17:13;;;;;;;5.97;2.22;;;;;;;;;;4998219;28;20054;-81
2022/11/08 06:19:39;;;;;;;7.88;2.20;;;;;;;;;;4995224;28;20046;-82
2022/11/08 06:22:06;;;;;;;8.18;2.10;;;;;;;;;;5000983;28;20057;-82
2022/11/08 06:24:32;;;;;;;6.07;2.17;;;;;;;;;;4998225;28;20072;-79
2022/11/08 06:27:00;;;;;;;7.78;2.28;;;;;;;;;;4991692;28;20057;-81
2022/11/08 06:29:26;;;;;;;6.15;2.70;;;;;;;;;;4998256;28;20115;-81
2022/11/08 06:31:53;;;;;;;7.47;2.70;;;;;;;;;;4997263;28;20078;-81
2022/11/08 06:34:19;;;;;;;6.00;2.22;;;;;;;;;;4997932;28;20061;-81
2022/11/08 06:36:46;;;;;;;9.93;2.90;;;;;;;;;;4998156;28;20056;-82
2022/11/08 06:39:12;;;;;;;8.73;2.63;;;;;;;;;;5008916;28;20046;-81
2022/11/08 06:41:38;;;;;;;6.97;3.20;;;;;;;;;;5002984;28;20046;-81
2022/11/08 06:44:05;;;;;;;10.85;3.05;;;;;;;;;;4992595;28;20152;-81
2022/11/08 06:46:31;;;;;;;8.73;3.50;;;;;;;;;;4998716;28;20065;-79
2022/11/08 06:48:57;;;;;;;10.85;3.30;;;;;;;;;;5012380;28;20048;-80
2022/11/08 06:51:24;;;;;;;7.53;3.63;;;;;;;;;;5000048;28;20061;-80
2022/11/08 06:53:50;;;;;;;12.52;4.28;;;;;;;;;;5000255;28;20050;-80
2022/11/08 06:56:17;;;;;;;11.43;4.10;;;;;;;;;;4998838;28;20055;-80
2022/11/08 06:58:43;;;;;;;8.73;3.78;;;;;;;;;;5000502;28;20080;-80
2022/11/08 07:01:09;;;;;;;10.05;3.90;;;;;;;;;;5003711;28;20043;-80
2022/11/08 07:03:36;;;;;;;11.60;3.80;;;;;;;;;;5011970;28;20046;-79
2022/11/08 07:06:03;;;;;;;9.70;3.70;;;;;;;;;;5016813;28;20060;-79
2022/11/08 07:08:30;;;;;;;12.43;4.03;;;;;;;;;;5016102;28;20061;-78
2022/11/08 07:10:57;;;;;;;8.10;3.95;;;;;;;;;;5012380;28;20065;-77
2022/11/08 07:13:23;;;;;;;10.32;3.95;;;;;;;;;;5012375;28;20138;-79
2022/11/08 07:15:49;;;;;;;11.63;3.60;;;;;;;;;;5005781;28;20054;-80
2022/11/08 07:18:16;;;;;;;11.10;3.75;;;;;;;;;;5006341;28;20041;-80
2022/11/08 07:20:43;;;;;;;8.25;3.53;;;;;;;;;;5003479;28;20050;-78
2022/11/08 07:23:10;;;;;;;8.18;4.00;;;;;;;;;;4995499;28;20050;-79
2022/11/08 07:25:36;;;;;;;10.95;3.53;;;;;;;;;;4998399;28;20054;-79
2022/11/08 07:28:04;;;;;;;12.48;3.92;;;;;;;;;;4993428;28;20073;-80
2022/11/08 07:30:31;;;;;;;10.57;3.95;;;;;;;;;;4998556;28;20046;-81
2022/11/08 07:32:57;;;;;;;11.25;4.13;;;;;;;;;;4993693;28;20534;-78
2022/11/08 07:35:26;;;;;;;11.55;3.67;;;;;;;;;;4999609;28;20082;-83
2022/11/08 07:37:55;;;;;;;9.52;3.95;;;;;;;;;;4995351;28;20574;-81
2022/11/08 07:40:21;;;;;;;7.18;3.22;;;;;;;;;;5000884;28;20177;-83
2022/11/08 07:42:48;;;;;;;10.52;3.63;;;;;;;;;;5001959;28;20053;-79
2022/11/08 07:45:34;;;;;;;10.00;3.40;;;;;;;;;;4998665;28;20435;-80
2022/11/08 07:48:02;;;;;;;8.95;3.33;;;;;;;;;;4994356;28;20062;-82
2022/11/08 07:50:36;;;;;;;8.52;3.20;;;;;;;;;;4998681;28;20093;-80
2022/11/08 07:53:03;;;;;;;6.88;3.10;;;;;;;;;;4999044;28;20064;-82
2022/11/08 07:55:29;;;;;;;9.98;3.10;;;;;;;;;;4999489;28;20396;-82
2022/11/08 07:58:01;;;;;;;8.27;3.20;;;;;;;;;;5008519;28;20061;-80
2022/11/08 08:00:28;;;;;;;9.30;2.78;;;;;;;;;;5002914;28;20046;-81
2022/11/08 08:02:58;;;;;;;11.63;3.30;;;;;;;;;;5000378;28;20034;-78
2022/11/08 08:05:31;;;;;;;7.18;2.75;;;;;;;;;;5014186;28;20046;-80
2022/11/08 08:07:58;;;;;;;10.93;2.95;;;;;;;;;;5020148;28;20052;-81
2022/11/08 08:10:26;;;;;;;7.20;2.67;;;;;;;;;;5020197;28;20053;-81
2022/11/08 08:12:52;;;;;;;12.38;3.25;;;;;;;;;;5021461;28;20057;-79
2022/11/08 08:15:19;;;;;;;7.50;2.45;;;;;;;;;;5002228;28;20078;-82
2022/11/08 08:17:45;;;;;;;13.10;2.33;;;;;;;;;;4996884;28;20137;-80
2022/11/08 08:20:12;;;;;;;9.68;2.70;;;;;;;;;;4997806;28;20043;-80
2022/11/08 08:22:45;;;;;;;6.10;2.25;;;;;;;;;;4999049;28;20048;-80
2022/11/08 08:25:12;;;;;;;4.72;2.13;;;;;;;;;;4993944;28;20095;-81
2022/11/08 08:27:38;;;;;;;6.45;2.13;;;;;;;;;;5000041;28;20057;-83
2022/11/08 08:30:05;;;;;;;8.85;2.70;;;;;;;;;;5003011;28;20058;-78
2022/11/08 08:32:32;;;;;;;6.40;2.03;;;;;;;;;;5007225;28;20056;-79
2022/11/08 08:34:58;;;;;;;5.25;2.30;;;;;;;;;;5006042;28;20054;-78
2022/11/08 08:37:24;;;;;;;8.88;2.80;;;;;;;;;;5011261;28;20049;-80
2022/11/08 08:39:53;;;;;;;6.63;2.40;;;;;;;;;;5009968;28;20070;-80
2022/11/08 08:42:20;;;;;;;6.10;2.33;;;;;;;;;;5001572;28;20060;-80
2022/11/08 08:44:46;;;;;;;8.60;2.70;;;;;;;;;;4992154;28;20050;-82
2022/11/08 08:47:12;;;;;;;8.07;2.65;;;;;;;;;;4999424;28;20050;-80
2022/11/08 08:49:39;;;;;;;7.55;2.13;;;;;;;;;;4998251;28;20129;-80
2022/11/08 08:52:05;;;;;;;6.22;1.90;;;;;;;;;;5000034;28;20057;-82
2022/11/08 08:54:31;;;;;;;7.38;1.80;;;;;;;;;;4998727;28;20419;-80
2022/11/08 08:56:58;;;;;;;6.55;2.08;;;;;;;;;;5001353;28;20052;-79
2022/11/08 08:59:26;;;;;;;3.78;1.05;;;;;;;;;;4995821;28;20129;-82
2022/11/08 09:02:13;;;;;;;3.65;1.20;;;;;;;;;;4999011;28;20051;-81
2022/11/08 09:04:40;;;;;;;4.88;1.27;;;;;;;;;;4998882;28;20046;-80
2022/11/08 09:07:06;;;;;;;3.22;0.90;;;;;;;;;;5016713;28;20109;-80
2022/11/08 09:09:33;;;;;;;2.20;0.90;;;;;;;;;;5019321;28;20124;-81
2022/11/08 09:11:59;;;;;;;3.80;1.02;;;;;;;;;;5018751;28;20095;-80
2022/11/08 09:14:26;;;;;;;4.57;1.00;;;;;;;;;;5007843;28;20296;-80
2022/11/08 09:16:52;;;;;;;5.63;1.20;;;;;;;;;;4997723;28;20046;-77
2022/11/08 09:19:19;;;;;;;3.88;1.02;;;;;;;;;;5001734;28;20125;-81
2022/11/08 09:21:45;;;;;;;4.80;1.00;;;;;;;;;;5000045;28;20046;-80
2022/11/08 09:24:11;;;;;;;3.90;0.90;;;;;;;;;;4998801;28;20109;-81
2022/11/08 09:26:38;;;;;;;4.63;0.95;;;;;;;;;;4999023;28;20046;-82
2022/11/08 09:29:04;;;;;;;2.65;0.90;;;;;;;;;;4996901;28;20057;-80
2022/11/08 09:31:31;;;;;;;2.60;0.80;;;;;;;;;;4997723;28;20050;-78
2022/11/08 09:33:57;;;;;;;2.92;1.00;;;;;;;;;;4998084;28;20053;-81
2022/11/08 09:36:23;;;;;;;4.75;0.90;;;;;;;;;;4998473;28;20062;-81
2022/11/08 09:38:50;;;;;;;3.33;1.02;;;;;;;;;;4991028;28;20388;-80
2022/11/08 09:41:45;;;;;;;2.47;0.88;;;;;;;;;;4999591;28;20058;-82
2022/11/08 09:44:24;;;;;;;4.43;1.20;;;;;;;;;;4999714;28;20106;-82
2022/11/08 09:46:52;;;;;;;2.60;0.90;;;;;;;;;;5001287;28;20054;-81
2022/11/08 09:49:22;;;;;;;3.08;0.90;;;;;;;;;;4997535;28;20053;-82
2022/11/08 09:51:49;;;;;;;2.35;0.82;;;;;;;;;;4994703;28;20055;-80
2022/11/08 09:54:21;;;;;;;1.73;0.88;;;;;;;;;;5002032;28;20054;-82
2022/11/08 09:56:47;;;;;;;3.25;0.90;;;;;;;;;;5000005;28;20050;-78
2022/11/08 09:59:17;;;;;;;2.97;1.00;;;;;;;;;;5006096;28;20050;-79
2022/11/08 10:01:43;;;;;;;5.28;0.95;;;;;;;;;;5002939;28;20054;-81
2022/11/08 10:04:15;;;;;;;1.85;0.70;;;;;;;;;;5013190;28;20054;-81
2022/11/08 10:06:44;;;;;;;2.28;0.90;;;;;;;;;;5015694;28;20041;-79
2022/11/08 10:09:30;;;;;;;3.92;0.60;;;;;;;;;;5021867;28;20080;-82
2022/11/08 10:12:29;;;;;;;2.75;0.85;;;;;;;;;;5022180;28;20046;-80
2022/11/08 10:15:01;;;;;;;1.92;0.70;;;;;;;;;;4963360;28;20523;-81
2022/11/08 10:17:30;;;;;;;3.80;0.77;;;;;;;;;;5003249;28;20050;-82
2022/11/08 10:19:59;;;;;;;2.72;0.90;;;;;;;;;;5002075;28;20102;-79
2022/11/08 10:22:41;;;;;;;1.38;0.70;;;;;;;;;;5000345;28;20170;-79
2022/11/08 10:25:07;;;;;;;;;;;;;;;;;;5000788;28;20050;-82
2022/11/08 10:27:39;;;;;;;1.35;0.70;;;;;;;;;;5001891;28;19936;-82
2022/11/08 10:30:24;;;;;;;2.63;0.70;;;;;;;;;;5002264;28;20064;-79
2022/11/08 10:32:53;;;;;;;2.35;0.82;;;;;;;;;;5004962;28;20054;-81
2022/11/08 10:35:28;;;;;;;3.63;0.80;;;;;;;;;;5003554;28;20054;-81
2022/11/08 10:37:56;;;;;;;2.30;0.68;;;;;;;;;;5011119;28;20070;-80
2022/11/08 10:40:26;;;;;;;2.35;0.70;;;;;;;;;;5008200;28;20050;-81
2022/11/08 10:42:59;;;;;;;5.03;0.82;;;;;;;;;;5009172;28;20070;-79
2022/11/08 10:45:30;;;;;;;4.30;0.80;;;;;;;;;;5005955;28;20047;-81
2022/11/08 10:47:57;;;;;;;3.40;0.68;;;;;;;;;;5000760;28;20118;-81
2022/11/08 10:50:33;;;;;;;2.05;0.73;;;;;;;;;;5007478;28;20064;-80
2022/11/08 10:53:01;;;;;;;3.47;0.90;;;;;;;;;;5005999;28;20068;-79
2022/11/08 10:55:29;;;;;;;5.53;0.80;;;;;;;;;;5004906;28;20133;-80
2022/11/08 10:57:56;;;;;;;1.75;0.73;;;;;;;;;;5006424;28;20061;-82
2022/11/08 11:00:24;;;;;;;2.95;0.80;;;;;;;;;;5004842;28;20131;-83
2022/11/08 11:03:22;;;;;;;4.32;0.90;;;;;;;;;;5001064;28;20114;-81
2022/11/08 11:05:57;;;;;;;1.88;0.60;;;;;;;;;;5004900;28;20054;-79
2022/11/08 11:08:24;;;;;;;2.00;0.80;;;;;;;;;;5004653;28;20092;-81
2022/11/08 11:10:51;;;;;;;3.60;0.93;;;;;;;;;;4999263;28;20137;-81
2022/11/08 11:13:17;;;;;;;3.17;0.80;;;;;;;;;;5005197;28;20050;-80
2022/11/08 11:15:58;;;;;;;1.52;0.85;;;;;;;;;;5005450;28;20059;-79
2022/11/08 11:18:36;;;;;;;5.00;0.82;;;;;;;;;;5014419;28;20118;-79
2022/11/08 11:21:05;;;;;;;3.03;0.95;;;;;;;;;;5009039;28;20102;-81
2022/11/08 11:23:33;;;;;;;1.83;0.80;;;;;;;;;;5004556;28;20051;-80
2022/11/08 11:26:00;;;;;;;2.60;1.08;;;;;;;;;;4996100;28;20133;-79
2022/11/08 11:28:26;;;;;;;2.00;0.73;;;;;;;;;;5000586;28;20065;-79
2022/11/08 11:31:00;;;;;;;2.20;0.88;;;;;;;;;;5002949;28;20430;-79
2022/11/08 11:33:28;;;;;;;3.15;1.02;;;;;;;;;;5006885;28;20057;-81
2022/11/08 11:35:57;;;;;;;3.55;0.80;;;;;;;;;;5007665;28;20051;-79
2022/11/08 11:38:29;;;;;;;4.47;0.80;;;;;;;;;;5005949;28;20056;-80
2022/11/08 11:40:59;;;;;;;3.13;0.80;;;;;;;;;;5003546;28;20054;-81
2022/11/08 11:43:38;;;;;;;2.35;0.80;;;;;;;;;;5002032;28;20114;-78
2022/11/08 11:46:12;;;;;;;1.27;0.70;;;;;;;;;;5003571;28;20107;-79
2022/11/08 11:48:41;;;;;;;2.53;0.80;;;;;;;;;;5002188;28;20054;-80
2022/11/08 11:51:09;;;;;;;1.98;0.60;;;;;;;;;;5003265;28;20143;-80
2022/11/08 11:53:36;;;;;;;1.92;0.80;;;;;;;;;;5001389;28;20054;-80
2022/11/08 11:56:11;;;;;;;2.65;0.75;;;;;;;;;;4997102;28;20054;-81
2022/11/08 11:58:46;;;;;;;0.80;0.50;;;;;;;;;;5002769;28;20046;-82
2022/11/08 12:01:13;;;;;;;;;;;;;;;;;;4997611;28;20056;-79
2022/11/08 12:03:43;;;;;;;0.98;0.60;;;;;;;;;;5008662;28;20378;-79
2022/11/08 12:06:29;;;;;;;2.72;0.70;;;;;;;;;;5013517;28;20081;-80
2022/11/08 12:08:56;;;;;;;1.77;0.60;;;;;;;;;;4956023;28;20101;-82
2022/11/08 12:11:28;;;;;;;3.22;0.70;;;;;;;;;;5000406;28;20086;-81
2022/11/08 12:14:01;;;;;;;1.63;0.55;;;;;;;;;;4995614;28;20415;-80
2022/11/08 12:16:34;;;;;;;1.20;0.63;;;;;;;;;;5000888;28;20056;-83
2022/11/08 12:19:19;;;;;;;4.30;0.70;;;;;;;;;;5002223;28;20053;-80
2022/11/08 12:21:59;;;;;;;4.30;0.80;;;;;;;;;;5000708;28;20074;-79
2022/11/08 12:24:41;;;;;;;3.97;0.57;;;;;;;;;;5000728;28;20061;-80
2022/11/08 12:27:26;;;;;;;1.05;0.50;;;;;;;;;;5002951;28;20057;-79
2022/11/08 12:30:02;;;;;;;1.17;0.70;;;;;;;;;;5005333;28;20057;-83
2022/11/08 12:32:37;;;;;;;1.30;0.50;;;;;;;;;;5005415;28;20138;-80
2022/11/08 12:35:22;;;;;;;1.33;0.50;;;;;;;;;;4999963;28;20110;-83
2022/11/08 12:37:57;;;;;;;1.53;0.80;;;;;;;;;;5008382;28;20046;-81
2022/11/08 12:40:42;;;;;;;1.60;0.77;;;;;;;;;;5002171;28;20046;-83
2022/11/08 12:43:29;;;;;;;1.73;0.73;;;;;;;;;;5003127;28;20042;-82
2022/11/08 12:45:55;;;;;;;1.23;0.50;;;;;;;;;;4996540;28;20043;-82
2022/11/08 12:48:28;;;;;;;2.03;0.60;;;;;;;;;;5001635;28;20133;-81
2022/11/08 12:51:06;;;;;;;2.20;0.50;;;;;;;;;;4998188;28;20087;-80
2022/11/08 12:53:53;;;;;;;1.92;0.80;;;;;;;;;;4996675;28;20057;-80
2022/11/08 12:56:21;;;;;;;0.90;0.50;;;;;;;;;;4974136;28;20046;-81
2022/11/08 12:58:51;;;;;;;2.10;0.60;;;;;;;;;;4998432;28;20137;-79
2022/11/08 13:01:18;;;;;;;3.78;0.80;;;;;;;;;;4998246;28;20050;-82
2022/11/08 13:03:50;;;;;;;2.50;0.70;;;;;;;;;;5005945;28;20081;-81
2022/11/08 13:06:20;;;;;;;1.23;0.60;;;;;;;;;;5010179;28;20054;-81
2022/11/08 13:08:47;;;;;;;0.93;0.60;;;;;;;;;;5010391;28;20076;-80
2022/11/08 13:11:22;;;;;;;2.40;0.70;;;;;;;;;;5017744;28;20046;-81
2022/11/08 13:13:51;;;;;;;2.10;0.50;;;;;;;;;;5007280;28;20087;-81
2022/11/08 13:16:19;;;;;;;2.05;0.60;;;;;;;;;;4997171;28;20084;-82
2022/11/08 13:18:52;;;;;;;2.42;0.68;;;;;;;;;;4989432;28;20057;-81
2022/11/08 13:21:24;;;;;;;1.50;0.50;;;;;;;;;;4998915;28;20055;-82
2022/11/08 13:23:51;;;;;;;0.70;0.50;;;;;;;;;;4989490;28;20164;-78
2022/11/08 13:26:22;;;;;;;2.05;0.65;;;;;;;;;;4998620;28;20054;-82
2022/11/08 13:28:49;;;;;;;4.00;1.85;;;;;;;;;;4998027;28;20491;-80
2022/11/08 13:31:26;;;;;;;1.83;0.68;;;;;;;;;;4997964;28;20052;-80
2022/11/08 13:34:05;;;;;;;1.40;0.60;;;;;;;;;;4989754;28;20115;-80
2022/11/08 13:36:46;;;;;;;2.35;0.77;;;;;;;;;;4998472;28;20042;-82
2022/11/08 13:39:15;;;;;;;2.40;0.70;;;;;;;;;;4998563;28;20050;-82
2022/11/08 13:42:00;;;;;;;2.42;0.60;;;;;;;;;;4997112;28;20043;-82
2022/11/08 13:44:45;;;;;;;1.70;0.77;;;;;;;;;;4996407;28;20097;-82
2022/11/08 13:47:30;;;;;;;2.28;1.13;;;;;;;;;;4997471;28;20790;-82
2022/11/08 13:50:15;;;;;;;3.85;0.70;;;;;;;;;;4996251;28;20046;-82
2022/11/08 13:52:43;;;;;;;0.98;0.60;;;;;;;;;;4997611;28;20046;-82
2022/11/08 13:55:28;;;;;;;1.75;0.60;;;;;;;;;;4991799;28;20043;-83
2022/11/08 13:57:57;;;;;;;2.60;0.60;;;;;;;;;;4997070;28;20046;-82
2022/11/08 14:00:41;;;;;;;3.35;0.80;;;;;;;;;;4998971;28;20542;-84
2022/11/08 14:03:25;;;;;;;3.83;0.82;;;;;;;;;;5003652;28;20054;-81
2022/11/08 14:05:54;;;;;;;2.38;0.60;;;;;;;;;;5011084;28;20069;-82
2022/11/08 14:08:22;;;;;;;3.70;0.73;;;;;;;;;;5029740;28;20164;-82
2022/11/08 14:10:54;;;;;;;1.70;0.73;;;;;;;;;;5031789;28;20069;-80
2022/11/08 14:13:35;;;;;;;1.33;0.70;;;;;;;;;;5012492;28;20026;-81
2022/11/08 14:16:05;;;;;;;2.25;0.70;;;;;;;;;;4999457;28;20047;-82
2022/11/08 14:18:37;;;;;;;3.25;0.80;;;;;;;;;;4995496;28;20046;-82
2022/11/08 14:21:05;;;;;;;1.80;0.80;;;;;;;;;;4996630;28;20317;-83
2022/11/08 14:23:41;;;;;;;1.85;0.60;;;;;;;;;;4996931;28;20634;-83
2022/11/08 14:26:19;;;;;;;3.33;0.60;;;;;;;;;;4992626;28;20050;-82
2022/11/08 14:28:46;;;;;;;2.22;0.90;;;;;;;;;;4998379;28;20054;-82
2022/11/08 14:31:33;;;;;;;2.08;0.85;;;;;;;;;;4996557;28;20042;-81
2022/11/08 14:34:00;;;;;;;3.88;0.80;;;;;;;;;;4996924;28;20050;-81
2022/11/08 14:36:28;;;;;;;2.05;0.85;;;;;;;;;;4997451;28;20065;-82
2022/11/08 14:39:01;;;;;;;1.50;0.60;;;;;;;;;;4990087;28;20117;-78
2022/11/08 14:41:29;;;;;;;1.65;0.90;;;;;;;;;;4998602;28;20108;-83
2022/11/08 14:43:57;;;;;;;0.85;0.70;;;;;;;;;;4997374;28;20046;-80
2022/11/08 14:46:23;;;;;;;5.18;0.80;;;;;;;;;;4994226;28;20061;-81
2022/11/08 14:48:58;;;;;;;2.95;0.60;;;;;;;;;;4998305;28;20054;-81
2022/11/08 14:51:25;;;;;;;2.13;0.60;;;;;;;;;;4994857;28;20092;-83
2022/11/08 14:53:52;;;;;;;1.98;0.70;;;;;;;;;;4999301;28;20058;-79
2022/11/08 14:56:22;;;;;;;1.55;0.63;;;;;;;;;;4995261;28;20056;-82
2022/11/08 14:58:49;;;;;;;3.95;1.17;;;;;;;;;;4997216;28;20059;-81
2022/11/08 15:01:18;;;;;;;3.33;1.10;;;;;;;;;;4996723;28;20086;-81
2022/11/08 15:03:47;;;;;;;2.47;0.88;;;;;;;;;;4999949;28;20145;-81
2022/11/08 15:06:14;;;;;;;3.72;1.42;;;;;;;;;;5006338;28;20565;-81
2022/11/08 15:08:51;;;;;;;1.85;0.80;;;;;;;;;;5006977;28;20082;-81
2022/11/08 15:11:34;;;;;;;3.13;0.85;;;;;;;;;;5017421;28;20532;-81
2022/11/08 15:14:05;;;;;;;3.55;0.77;;;;;;;;;;5012705;28;20038;-81